Time;durP1;ratioP1;P1;durP2;ratioP2;P2;SDS_P1;SDS_P2;PMS_P1;PMS_P2;Temp;Humidity;BMP_temperature;BMP_pressure;BME280_temperature;BME280_humidity;BME280_pressure;Samples;Min_cycle;Max_cycle;Signal;HPM_P1;HPM_P2
2023/10/08 00:01:41;;;;;;;7.72;4.30;;;358.50;2304.00;;;;;;5068412;28;20035;-56
2023/10/08 00:04:08;;;;;;;7.32;3.95;;;358.60;2278.40;;;;;;5076370;28;20025;-58
2023/10/08 00:06:33;;;;;;;7.90;4.70;;;358.70;2252.80;;;;;;5068788;28;20062;-59
2023/10/08 00:09:00;;;;;;;8.38;5.05;;;358.70;2329.60;;;;;;5069491;28;20136;-56
2023/10/08 00:11:29;;;;;;;8.48;5.03;;;358.70;2329.60;;;;;;5068251;28;20470;-57
2023/10/08 00:13:56;;;;;;;10.40;4.90;;;358.60;2329.60;;;;;;5082313;28;20024;-58
2023/10/08 00:16:22;;;;;;;7.45;4.35;;;358.60;2304.00;;;;;;5089119;28;20052;-58
2023/10/08 00:18:51;;;;;;;8.35;4.20;;;358.70;2252.80;;;;;;5089197;28;20027;-58
2023/10/08 00:21:27;;;;;;;9.10;4.10;;;358.60;2329.60;;;;;;5088804;28;20059;-57
2023/10/08 00:23:59;;;;;;;7.72;5.00;;;358.60;2329.60;;;;;;5088131;28;20069;-58
2023/10/08 00:26:33;;;;;;;7.50;4.00;;;358.60;2329.60;;;;;;5088806;28;20032;-57
2023/10/08 00:29:06;;;;;;;8.57;4.13;;;358.50;2304.00;;;;;;5075035;28;20036;-58
2023/10/08 00:31:40;;;;;;;9.85;4.43;;;358.50;2304.00;;;;;;5088656;28;20035;-57
2023/10/08 00:34:08;;;;;;;7.75;5.03;;;358.50;2329.60;;;;;;5069200;28;20029;-58
2023/10/08 00:36:34;;;;;;;10.07;4.63;;;358.40;2329.60;;;;;;5080348;28;20127;-58
2023/10/08 00:39:00;;;;;;;8.18;4.28;;;358.40;2329.60;;;;;;5088966;28;20432;-58
2023/10/08 00:41:32;;;;;;;6.75;4.25;;;358.40;2329.60;;;;;;5075185;28;20020;-58
2023/10/08 00:44:00;;;;;;;8.15;4.15;;;333.70;2329.60;;;;;;5088494;28;20024;-58
2023/10/08 00:47:11;;;;;;;7.97;4.78;;;333.70;2329.60;;;;;;5089016;28;21379;-58
2023/10/08 00:52:04;;;;;;;9.93;6.05;;;333.70;2329.60;;;;;;5045924;28;20072;-59
2023/10/08 00:57:22;;;;;;;8.52;4.32;;;333.70;2329.60;;;;;;4986395;28;20050;-57
2023/10/08 00:59:55;;;;;;;8.15;3.38;;;333.60;2329.60;;;;;;4986609;28;20350;-58
2023/10/08 01:02:26;;;;;;;8.85;5.22;;;333.60;2329.60;;;;;;4970385;28;20486;-57
2023/10/08 01:04:54;;;;;;;9.43;5.72;;;333.60;2329.60;;;;;;4975208;28;20363;-59
2023/10/08 01:07:20;;;;;;;9.90;5.78;;;333.60;2329.60;;;;;;4986586;28;20447;-57
2023/10/08 01:09:51;;;;;;;9.60;6.50;;;333.60;2329.60;;;;;;4985725;28;20050;-58
2023/10/08 01:14:53;;;;;;;;;;;333.60;2329.60;;;;;;4987261;28;20049;-58
2023/10/08 01:17:24;;;;;;;11.02;6.95;;;333.60;2329.60;;;;;;4986408;28;20294;-57
2023/10/08 01:20:21;;;;;;;10.20;6.72;;;333.60;2329.60;;;;;;4986283;28;20054;-58
2023/10/08 01:22:38;;;;;;;11.65;5.90;;;333.60;2329.60;;;;;;4986066;28;20038;-57
2023/10/08 01:25:05;;;;;;;9.95;5.43;;;333.60;2329.60;;;;;;4990336;28;20031;-58
2023/10/08 01:27:34;;;;;;;9.13;6.18;;;333.60;2329.60;;;;;;4964495;28;20042;-58
2023/10/08 01:30:17;;;;;;;11.57;7.72;;;333.60;2329.60;;;;;;5024716;28;20116;-57
2023/10/08 01:32:44;;;;;;;9.32;6.32;;;333.60;2329.60;;;;;;5029752;28;20034;-58
2023/10/08 01:35:26;;;;;;;10.13;7.40;;;333.60;2329.60;;;;;;5080875;28;20500;-59
2023/10/08 01:37:52;;;;;;;10.48;6.40;;;333.60;2329.60;;;;;;5091856;28;20085;-58
2023/10/08 01:40:18;;;;;;;9.85;5.75;;;333.50;2329.60;;;;;;5084601;28;20017;-58
2023/10/08 01:42:45;;;;;;;10.35;5.63;;;333.40;2329.60;;;;;;5072714;28;20031;-58
2023/10/08 01:45:13;;;;;;;7.13;4.55;;;333.50;2329.60;;;;;;5090769;28;20027;-59
2023/10/08 01:47:39;;;;;;;8.95;4.90;;;333.50;2329.60;;;;;;5079211;28;20331;-57
2023/10/08 01:50:12;;;;;;;12.05;5.72;;;333.50;2329.60;;;;;;5091312;28;20073;-58
2023/10/08 01:52:40;;;;;;;7.88;5.22;;;333.40;2329.60;;;;;;5091799;28;20016;-58
2023/10/08 01:55:10;;;;;;;10.18;5.50;;;333.40;2329.60;;;;;;5091703;28;20066;-58
2023/10/08 01:57:37;;;;;;;8.27;5.22;;;333.40;2329.60;;;;;;5077578;28;20471;-57
2023/10/08 02:00:07;;;;;;;9.13;5.10;;;333.40;2329.60;;;;;;5091446;28;20032;-58
2023/10/08 02:02:33;;;;;;;8.93;5.05;;;333.40;2329.60;;;;;;5091809;28;20024;-58
2023/10/08 02:04:59;;;;;;;14.30;5.63;;;333.50;2329.60;;;;;;5091489;28;20649;-56
2023/10/08 02:07:25;;;;;;;10.23;4.70;;;333.50;2329.60;;;;;;5091678;28;20028;-59
2023/10/08 02:09:51;;;;;;;10.32;4.80;;;333.40;2329.60;;;;;;5091348;28;20458;-59
2023/10/08 02:12:16;;;;;;;8.80;5.30;;;333.50;2329.60;;;;;;5087215;28;20473;-58
2023/10/08 02:14:42;;;;;;;7.38;4.43;;;333.50;2329.60;;;;;;5070644;28;20024;-59
2023/10/08 02:17:09;;;;;;;8.75;4.65;;;333.40;2329.60;;;;;;5086638;28;20032;-59
2023/10/08 02:19:37;;;;;;;9.27;4.95;;;333.40;2329.60;;;;;;5090735;28;20024;-58
2023/10/08 02:22:05;;;;;;;8.40;4.65;;;333.40;2329.60;;;;;;5090983;28;20028;-58
2023/10/08 02:24:32;;;;;;;6.97;4.30;;;333.40;2329.60;;;;;;5091141;28;20055;-58
2023/10/08 02:26:59;;;;;;;6.75;4.22;;;333.50;2329.60;;;;;;5090134;28;20126;-59
2023/10/08 02:29:30;;;;;;;6.68;4.00;;;333.60;2329.60;;;;;;5090880;28;20386;-58
2023/10/08 02:31:59;;;;;;;10.20;5.55;;;333.70;2329.60;;;;;;5091135;28;20062;-57
2023/10/08 02:34:25;;;;;;;8.45;4.57;;;333.70;2329.60;;;;;;5089804;28;20028;-58
2023/10/08 02:36:52;;;;;;;9.55;5.45;;;358.40;2329.60;;;;;;5090856;28;20024;-58
2023/10/08 02:39:26;;;;;;;7.25;4.72;;;358.40;2329.60;;;;;;5091080;28;20035;-59
2023/10/08 02:41:56;;;;;;;8.55;4.18;;;358.40;2329.60;;;;;;5090430;28;20792;-58
2023/10/08 02:44:22;;;;;;;7.82;4.82;;;358.40;2329.60;;;;;;5090468;28;20039;-58
2023/10/08 02:46:48;;;;;;;9.38;4.28;;;358.40;2329.60;;;;;;5080674;28;20025;-58
2023/10/08 02:49:25;;;;;;;8.48;4.60;;;358.40;2329.60;;;;;;5064655;28;20028;-58
2023/10/08 02:51:54;;;;;;;9.00;5.13;;;358.40;2329.60;;;;;;5078038;28;20036;-58
2023/10/08 02:54:23;;;;;;;8.60;4.72;;;333.70;2329.60;;;;;;5090126;28;20028;-58
2023/10/08 02:57:03;;;;;;;7.65;4.57;;;333.70;2329.60;;;;;;5090229;28;20020;-59
2023/10/08 02:59:39;;;;;;;7.05;4.10;;;333.70;2329.60;;;;;;5090433;28;20032;-59
2023/10/08 03:02:13;;;;;;;6.65;4.25;;;333.70;2329.60;;;;;;5091015;28;20078;-58
2023/10/08 03:04:45;;;;;;;8.85;4.95;;;358.50;2329.60;;;;;;5089808;28;20016;-59
2023/10/08 03:07:32;;;;;;;9.13;4.30;;;358.50;2329.60;;;;;;5090285;28;20028;-58
2023/10/08 03:10:17;;;;;;;5.85;3.72;;;358.50;2329.60;;;;;;5090332;28;20012;-59
2023/10/08 03:12:47;;;;;;;6.57;3.88;;;358.50;2329.60;;;;;;5090357;28;20063;-59
2023/10/08 03:15:14;;;;;;;9.35;4.90;;;358.60;2329.60;;;;;;5090602;28;20358;-58
2023/10/08 03:17:52;;;;;;;10.02;4.40;;;358.70;2278.40;;;;;;5089486;28;20020;-58
2023/10/08 03:23:06;;;;;;;7.07;3.88;;;358.80;2304.00;;;;;;5072685;28;20385;-60
2023/10/08 03:25:41;;;;;;;6.88;4.25;;;358.80;2278.40;;;;;;5089674;28;20728;-58
2023/10/08 03:28:08;;;;;;;6.88;4.57;;;358.80;2278.40;;;;;;5090296;28;20945;-58
2023/10/08 03:30:47;;;;;;;5.93;3.90;;;358.80;2304.00;;;;;;5089576;28;20034;-58
2023/10/08 03:33:21;;;;;;;6.35;4.53;;;358.90;2278.40;;;;;;5090000;28;20385;-59
2023/10/08 03:35:49;;;;;;;8.60;4.30;;;358.90;2252.80;;;;;;5089842;28;20016;-59
2023/10/08 03:38:21;;;;;;;7.28;4.15;;;359.00;2252.80;;;;;;5090207;28;20168;-58
2023/10/08 03:40:49;;;;;;;6.85;3.65;;;359.00;2278.40;;;;;;5089517;28;20024;-58
2023/10/08 03:43:23;;;;;;;7.72;4.25;;;359.00;2278.40;;;;;;5089816;28;20020;-57
2023/10/08 03:45:53;;;;;;;10.80;4.28;;;359.00;2278.40;;;;;;5089067;28;20085;-58
2023/10/08 03:48:22;;;;;;;8.15;4.35;;;359.00;2252.80;;;;;;5089196;28;20015;-59
2023/10/08 03:50:56;;;;;;;7.90;4.25;;;359.10;2252.80;;;;;;5071447;28;20260;-59
2023/10/08 03:53:22;;;;;;;7.60;4.43;;;359.10;2201.60;;;;;;5079743;28;20038;-57
2023/10/08 03:55:51;;;;;;;8.43;4.53;;;359.20;2201.60;;;;;;5089653;28;20028;-57
2023/10/08 03:58:32;;;;;;;6.32;3.90;;;359.20;2227.20;;;;;;5089257;28;20028;-59
2023/10/08 04:01:11;;;;;;;7.57;4.32;;;359.30;2227.20;;;;;;5089020;28;20028;-58
2023/10/08 04:06:39;;;;;;;7.95;4.07;;;359.30;2227.20;;;;;;5089244;28;20020;-58
2023/10/08 04:11:49;;;;;;;8.40;4.35;;;384.00;2201.60;;;;;;5089160;28;20124;-59
2023/10/08 04:14:18;;;;;;;8.40;5.18;;;384.10;2176.00;;;;;;5088712;28;20016;-58
2023/10/08 04:16:45;;;;;;;8.88;4.88;;;384.20;2176.00;;;;;;5089178;28;20028;-58
2023/10/08 04:19:12;;;;;;;6.75;3.80;;;384.30;2150.40;;;;;;5089009;28;20055;-58
2023/10/08 04:21:42;;;;;;;7.28;4.15;;;384.40;2124.80;;;;;;5088122;28;20465;-60
2023/10/08 04:24:08;;;;;;;8.27;4.63;;;384.60;2073.60;;;;;;5088742;28;20442;-59
2023/10/08 04:26:40;;;;;;;9.50;4.95;;;384.60;2201.60;;;;;;5088727;28;20028;-58
2023/10/08 04:29:06;;;;;;;8.00;4.68;;;384.50;2201.60;;;;;;5071103;28;20114;-59
2023/10/08 04:31:39;;;;;;;5.60;3.70;;;384.40;2176.00;;;;;;5082090;28;20504;-59
2023/10/08 04:34:22;;;;;;;8.63;4.80;;;384.50;2176.00;;;;;;5087319;28;20359;-58
2023/10/08 04:36:54;;;;;;;6.72;3.78;;;384.50;2176.00;;;;;;5088789;28;20027;-59
2023/10/08 04:39:32;;;;;;;8.85;4.22;;;384.60;2150.40;;;;;;5088898;28;20157;-58
2023/10/08 04:42:10;;;;;;;8.35;3.75;;;384.70;2124.80;;;;;;5088311;28;20063;-59
2023/10/08 04:44:43;;;;;;;7.88;4.20;;;384.80;2124.80;;;;;;5087214;28;20038;-59
2023/10/08 04:47:12;;;;;;;7.13;4.10;;;384.80;2124.80;;;;;;5088667;28;20024;-59
2023/10/08 04:49:45;;;;;;;6.93;3.85;;;384.80;2201.60;;;;;;5088763;28;20583;-59
2023/10/08 04:52:14;;;;;;;7.72;3.45;;;384.90;2150.40;;;;;;5088368;28;20432;-60
2023/10/08 04:54:50;;;;;;;6.57;4.20;;;409.60;2150.40;;;;;;5088290;28;20359;-59
2023/10/08 04:57:18;;;;;;;7.43;4.43;;;409.60;2176.00;;;;;;5087889;28;20367;-59
2023/10/08 04:59:46;;;;;;;6.35;4.10;;;409.70;2150.40;;;;;;5088416;28;20024;-59
2023/10/08 05:10:30;;;;;;;7.38;4.05;;;410.40;2048.00;;;;;;5025859;28;20032;-59
2023/10/08 05:15:47;;;;;;;7.03;4.63;;;435.20;2048.00;;;;;;5025683;28;20057;-59
2023/10/08 05:18:19;;;;;;;7.85;3.78;;;435.30;1996.80;;;;;;5026271;28;20644;-57
2023/10/08 05:28:35;;;;;;;9.73;5.20;;;435.60;1996.80;;;;;;5025465;28;20041;-59
2023/10/08 05:34:14;;;;;;;11.40;7.20;;;435.70;2022.40;;;;;;5025581;28;20067;-59
2023/10/08 05:41:51;;;;;;;8.07;5.28;;;435.90;1971.20;;;;;;5044713;28;20028;-59
2023/10/08 05:49:38;;;;;;;7.28;4.43;;;460.80;1996.80;;;;;;5088738;28;20038;-58
2023/10/08 05:57:38;;;;;;;8.30;4.88;;;460.90;1996.80;;;;;;5077718;28;20078;-58
2023/10/08 06:05:09;;;;;;;6.82;4.10;;;460.80;2022.40;;;;;;5088218;28;20031;-58
2023/10/08 06:07:56;;;;;;;9.32;5.50;;;461.00;1996.80;;;;;;5087785;28;20099;-57
2023/10/08 06:13:09;;;;;;;8.55;5.32;;;461.10;1996.80;;;;;;5068695;28;20030;-59
2023/10/08 06:18:15;;;;;;;8.85;5.22;;;461.20;1996.80;;;;;;5079578;28;20535;-59
2023/10/08 06:20:45;;;;;;;8.48;4.90;;;461.20;1996.80;;;;;;5089998;28;20044;-59
2023/10/08 06:23:18;;;;;;;11.15;5.45;;;461.30;1996.80;;;;;;5090833;28;20065;-59
2023/10/08 06:25:54;;;;;;;7.45;4.40;;;461.30;1996.80;;;;;;5090606;28;20057;-58
2023/10/08 06:28:20;;;;;;;7.25;4.50;;;461.30;1996.80;;;;;;5090696;28;20031;-58
2023/10/08 06:30:53;;;;;;;8.27;5.20;;;461.30;1996.80;;;;;;5091282;28;20032;-59
2023/10/08 06:33:20;;;;;;;6.60;4.28;;;461.40;2022.40;;;;;;5076372;28;20029;-59
2023/10/08 06:36:32;;;;;;;6.55;4.38;;;461.40;1996.80;;;;;;5071112;28;20033;-59
2023/10/08 06:38:33;;;;;;;7.60;4.72;;;461.50;1996.80;;;;;;5066808;28;20033;-59
2023/10/08 06:41:00;;;;;;;8.30;5.30;;;461.70;2022.40;;;;;;5070749;28;20030;-59
2023/10/08 06:43:26;;;;;;;7.95;4.25;;;461.70;2022.40;;;;;;5068877;28;20024;-59
2023/10/08 06:45:53;;;;;;;7.72;4.10;;;486.40;1996.80;;;;;;5082595;28;20497;-59
2023/10/08 06:48:25;;;;;;;8.60;5.18;;;486.50;1945.60;;;;;;5091208;28;20020;-60
2023/10/08 06:50:58;;;;;;;10.47;7.40;;;486.60;1971.20;;;;;;5090627;28;20027;-59
2023/10/08 06:53:24;;;;;;;;;;;486.70;1971.20;;;;;;5091086;28;20263;-59
2023/10/08 06:56:04;;;;;;;9.63;5.25;;;486.70;1971.20;;;;;;5077725;28;19909;-58
2023/10/08 06:58:33;;;;;;;8.15;4.97;;;486.70;1945.60;;;;;;5067475;28;20031;-59
2023/10/08 07:01:04;;;;;;;7.47;4.85;;;486.70;1971.20;;;;;;5089979;28;20039;-58
2023/10/08 07:03:31;;;;;;;9.35;5.57;;;486.70;1971.20;;;;;;5084572;28;20023;-63
2023/10/08 07:05:58;;;;;;;13.93;5.20;;;486.80;1971.20;;;;;;5081812;28;20025;-63
2023/10/08 07:08:31;;;;;;;7.97;4.80;;;487.00;1971.20;;;;;;5085623;28;20028;-63
2023/10/08 07:10:59;;;;;;;7.90;4.40;;;487.20;1971.20;;;;;;5089859;28;20088;-62
2023/10/08 07:13:29;;;;;;;5.07;3.08;;;487.30;1945.60;;;;;;5074539;28;20020;-63
2023/10/08 07:15:55;;;;;;;7.25;4.47;;;512.10;1945.60;;;;;;5084091;28;20554;-64
2023/10/08 07:18:25;;;;;;;7.85;4.65;;;512.10;1920.00;;;;;;5076992;28;20046;-64
2023/10/08 07:20:55;;;;;;;7.55;5.32;;;512.20;1920.00;;;;;;5089826;28;20076;-62
2023/10/08 07:23:25;;;;;;;8.73;4.60;;;512.20;1920.00;;;;;;5077323;28;20024;-62
2023/10/08 07:26:17;;;;;;;6.18;3.80;;;512.20;1996.80;;;;;;5081120;28;20077;-63
2023/10/08 07:28:45;;;;;;;8.57;4.85;;;512.20;1971.20;;;;;;5088748;28;20028;-63
2023/10/08 07:31:15;;;;;;;8.05;4.53;;;512.30;1996.80;;;;;;5089869;28;20108;-63
2023/10/08 07:33:43;;;;;;;9.13;5.85;;;512.20;1971.20;;;;;;5088488;28;20478;-65
2023/10/08 07:41:59;;;;;;;6.85;4.13;;;512.80;1945.60;;;;;;5093774;28;20020;-62
2023/10/08 07:44:29;;;;;;;6.75;4.30;;;512.90;1945.60;;;;;;5075191;28;20489;-61
2023/10/08 07:46:56;;;;;;;8.20;4.95;;;537.60;1920.00;;;;;;5085551;28;20117;-61
2023/10/08 07:49:23;;;;;;;8.65;5.38;;;537.90;1920.00;;;;;;5089820;28;20063;-61
2023/10/08 07:51:52;;;;;;;7.07;4.43;;;;;;;;;;5089291;28;20484;-62
2023/10/08 07:54:23;;;;;;;7.80;5.60;;;538.50;1792.00;;;;;;5089952;28;20020;-60
2023/10/08 07:56:57;;;;;;;9.43;6.18;;;563.30;1792.00;;;;;;5089316;28;20016;-62
2023/10/08 07:59:24;;;;;;;7.13;5.20;;;563.90;1792.00;;;;;;5089399;28;20067;-62
2023/10/08 08:01:52;;;;;;;9.20;6.88;;;588.80;1792.00;;;;;;5086218;28;20492;-61
2023/10/08 08:04:23;;;;;;;11.43;6.22;;;588.80;1868.80;;;;;;5089293;28;20020;-61
2023/10/08 08:06:50;;;;;;;10.40;6.65;;;589.40;1817.60;;;;;;5080503;28;20054;-61
2023/10/08 08:09:23;;;;;;;8.80;6.18;;;614.70;1766.40;;;;;;5089197;28;20024;-61
2023/10/08 08:11:49;;;;;;;;;;;640.00;1689.60;;;;;;5089779;28;20025;-62
2023/10/08 08:14:24;;;;;;;9.15;6.18;;;640.20;1638.40;;;;;;5082793;28;20007;-62
2023/10/08 08:16:50;;;;;;;10.88;6.65;;;640.20;1638.40;;;;;;5067864;28;20367;-61
2023/10/08 08:19:24;;;;;;;10.35;6.43;;;640.20;1638.40;;;;;;5074208;28;20031;-62
2023/10/08 08:21:49;;;;;;;;;;;640.50;1587.20;;;;;;5075786;28;20224;-62
2023/10/08 08:24:28;;;;;;;8.68;5.82;;;665.70;1536.00;;;;;;5056184;28;20019;-62
2023/10/08 08:27:07;;;;;;;10.23;6.57;;;666.30;1510.40;;;;;;5068883;28;20064;-62
2023/10/08 08:29:44;;;;;;;7.93;5.65;;;666.40;1510.40;;;;;;5069428;28;20386;-62
2023/10/08 08:32:15;;;;;;;9.70;6.70;;;666.00;1536.00;;;;;;5066752;28;20056;-62
2023/10/08 08:34:44;;;;;;;10.18;8.00;;;665.90;1561.60;;;;;;5068800;28;20027;-62
2023/10/08 08:37:12;;;;;;;9.93;7.93;;;666.20;1587.20;;;;;;5089035;28;20028;-62
2023/10/08 08:39:39;;;;;;;10.43;7.90;;;742.60;1484.80;;;;;;5089012;28;20024;-62
2023/10/08 08:42:05;;;;;;;11.90;8.52;;;768.60;1433.60;;;;;;5088620;28;20103;-61
2023/10/08 08:44:50;;;;;;;10.65;6.85;;;768.90;1408.00;;;;;;5088309;28;20120;-63
2023/10/08 08:47:18;;;;;;;9.23;6.53;;;768.50;1408.00;;;;;;5088854;28;20473;-62
2023/10/08 08:49:48;;;;;;;7.60;5.63;;;743.20;1484.80;;;;;;5061985;28;20099;-62
2023/10/08 08:52:14;;;;;;;9.93;6.30;;;;;;;;;;5080365;28;20047;-62
2023/10/08 08:54:42;;;;;;;10.05;6.07;;;717.50;1459.20;;;;;;5088281;28;20103;-61
2023/10/08 08:57:13;;;;;;;6.43;4.82;;;691.50;1510.40;;;;;;5088270;28;20564;-63
2023/10/08 08:59:48;;;;;;;9.23;5.32;;;666.50;1536.00;;;;;;5088207;28;20374;-62
2023/10/08 09:02:15;;;;;;;6.97;5.03;;;666.30;1510.40;;;;;;5087787;28;20033;-61
2023/10/08 09:04:41;;;;;;;8.48;5.32;;;666.10;1536.00;;;;;;5086138;28;20103;-61
2023/10/08 09:07:08;;;;;;;9.48;5.40;;;666.00;1561.60;;;;;;5074409;28;20040;-63
2023/10/08 09:09:37;;;;;;;14.73;5.57;;;665.70;1561.60;;;;;;5078641;28;20029;-62
2023/10/08 09:12:04;;;;;;;9.10;4.45;;;665.70;1536.00;;;;;;5065853;28;20037;-62
2023/10/08 09:14:34;;;;;;;10.88;5.50;;;640.90;1536.00;;;;;;5072650;28;20112;-62
2023/10/08 09:17:05;;;;;;;10.98;4.30;;;640.70;1510.40;;;;;;5086429;28;20387;-62
2023/10/08 09:19:36;;;;;;;9.02;5.22;;;640.60;1510.40;;;;;;5085556;28;20446;-62
2023/10/08 09:22:06;;;;;;;10.70;5.00;;;640.60;1536.00;;;;;;5076401;28;20114;-63
2023/10/08 09:24:39;;;;;;;9.35;4.32;;;640.60;1536.00;;;;;;5073753;28;20047;-62
2023/10/08 09:27:13;;;;;;;10.23;5.47;;;640.60;1510.40;;;;;;5086619;28;20531;-62
2023/10/08 09:29:40;;;;;;;9.60;4.70;;;640.60;1510.40;;;;;;5086176;28;20085;-62
2023/10/08 09:32:08;;;;;;;10.45;5.10;;;640.60;1510.40;;;;;;5087070;28;20020;-62
2023/10/08 09:34:34;;;;;;;14.23;4.75;;;665.60;1561.60;;;;;;5087207;28;20020;-62
2023/10/08 09:37:01;;;;;;;11.80;5.63;;;640.70;1510.40;;;;;;5086339;28;20081;-63
2023/10/08 09:39:29;;;;;;;12.88;4.63;;;640.90;1510.40;;;;;;5074158;28;20123;-62
2023/10/08 09:41:57;;;;;;;9.70;4.63;;;665.60;1561.60;;;;;;5086536;28;20492;-62
2023/10/08 09:44:25;;;;;;;10.80;5.60;;;665.70;1510.40;;;;;;5088008;28;20028;-62
2023/10/08 09:47:21;;;;;;;8.77;4.20;;;665.80;1510.40;;;;;;5090902;28;20109;-63
2023/10/08 09:49:56;;;;;;;8.50;4.53;;;665.70;1561.60;;;;;;5088018;28;20028;-62
2023/10/08 09:52:28;;;;;;;9.82;4.53;;;665.60;1510.40;;;;;;5079849;28;20128;-63
2023/10/08 09:55:03;;;;;;;9.27;4.72;;;665.60;1536.00;;;;;;5066895;28;20465;-61
2023/10/08 09:57:29;;;;;;;8.05;4.45;;;665.70;1536.00;;;;;;5086772;28;20024;-62
2023/10/08 09:59:57;;;;;;;8.73;4.75;;;665.70;1536.00;;;;;;5080635;28;20036;-61
2023/10/08 10:02:27;;;;;;;10.38;4.53;;;665.80;1510.40;;;;;;5076042;28;20023;-62
2023/10/08 10:04:55;;;;;;;7.05;4.32;;;665.90;1510.40;;;;;;5072609;28;20037;-61
2023/10/08 10:07:21;;;;;;;8.60;4.35;;;666.20;1536.00;;;;;;5075048;28;20374;-61
2023/10/08 10:09:53;;;;;;;12.50;5.28;;;666.30;1536.00;;;;;;5082794;28;20032;-61
2023/10/08 10:12:26;;;;;;;11.13;4.50;;;666.30;1536.00;;;;;;5070152;28;20072;-61
2023/10/08 10:14:56;;;;;;;7.90;4.30;;;666.30;1536.00;;;;;;5070995;28;20055;-61
2023/10/08 10:17:26;;;;;;;10.70;5.15;;;666.40;1536.00;;;;;;5070665;28;20036;-61
2023/10/08 10:19:56;;;;;;;8.25;4.93;;;666.40;1510.40;;;;;;5080773;28;20047;-60
2023/10/08 10:22:34;;;;;;;9.13;4.43;;;666.50;1510.40;;;;;;5071089;28;20028;-61
2023/10/08 10:25:03;;;;;;;9.55;4.75;;;666.50;1536.00;;;;;;5068746;28;20055;-61
2023/10/08 10:27:29;;;;;;;9.20;5.15;;;666.50;1510.40;;;;;;5070112;28;20078;-62
2023/10/08 10:30:08;;;;;;;11.70;4.65;;;666.50;1510.40;;;;;;5070125;28;20033;-61
2023/10/08 10:32:35;;;;;;;8.07;4.30;;;666.50;1510.40;;;;;;5060094;28;20376;-62
2023/10/08 10:35:05;;;;;;;8.13;5.22;;;691.20;1510.40;;;;;;5069492;28;20533;-61
2023/10/08 10:37:41;;;;;;;8.32;4.35;;;691.30;1510.40;;;;;;5071397;28;20024;-61
2023/10/08 10:40:12;;;;;;;9.93;5.32;;;691.30;1484.80;;;;;;5073807;28;20020;-61
2023/10/08 10:42:47;;;;;;;9.05;4.60;;;691.30;1484.80;;;;;;5071741;28;20139;-62
2023/10/08 10:45:35;;;;;;;12.23;4.95;;;691.30;1484.80;;;;;;5073665;28;20115;-61
2023/10/08 10:51:08;;;;;;;11.65;4.97;;;691.30;1510.40;;;;;;5044267;28;20059;-61
2023/10/08 10:53:44;;;;;;;11.20;4.85;;;691.30;1484.80;;;;;;5039606;28;20068;-61
2023/10/08 10:56:29;;;;;;;9.68;4.95;;;691.40;1484.80;;;;;;5047119;28;20032;-61
2023/10/08 10:58:59;;;;;;;8.60;4.60;;;691.40;1484.80;;;;;;5048144;28;20033;-62
2023/10/08 11:01:44;;;;;;;8.55;4.38;;;691.60;1484.80;;;;;;5039821;28;20506;-60
2023/10/08 11:04:15;;;;;;;8.80;4.72;;;691.40;1484.80;;;;;;5047372;28;20025;-61
2023/10/08 11:06:47;;;;;;;8.23;4.85;;;691.40;1484.80;;;;;;5048224;28;20456;-61
2023/10/08 11:09:17;;;;;;;8.18;4.50;;;691.30;1484.80;;;;;;5047479;28;20500;-61
2023/10/08 11:11:54;;;;;;;12.70;5.68;;;691.40;1484.80;;;;;;5042637;28;20072;-62
2023/10/08 11:14:21;;;;;;;7.93;4.65;;;691.40;1484.80;;;;;;5043479;28;20043;-62
2023/10/08 11:16:51;;;;;;;10.38;4.55;;;691.60;1484.80;;;;;;5048055;28;20410;-61
2023/10/08 11:19:20;;;;;;;7.10;4.40;;;691.50;1484.80;;;;;;5047893;28;20036;-62
2023/10/08 11:21:55;;;;;;;11.82;4.95;;;691.40;1510.40;;;;;;5047880;28;20516;-61
2023/10/08 11:24:34;;;;;;;11.80;5.30;;;691.40;1484.80;;;;;;5029204;28;20058;-62
2023/10/08 11:27:16;;;;;;;9.85;4.43;;;691.30;1484.80;;;;;;5058305;28;20033;-61
2023/10/08 11:29:56;;;;;;;8.95;4.18;;;691.20;1484.80;;;;;;5081930;28;20473;-62
2023/10/08 11:32:25;;;;;;;9.45;4.93;;;666.50;1510.40;;;;;;5083114;28;20096;-62
2023/10/08 11:35:01;;;;;;;8.15;5.00;;;666.40;1510.40;;;;;;5073662;28;20470;-62
2023/10/08 11:37:33;;;;;;;12.13;5.32;;;666.40;1536.00;;;;;;5062885;28;20064;-62
2023/10/08 11:40:07;;;;;;;12.90;5.75;;;666.50;1510.40;;;;;;5071388;28;20020;-61
2023/10/08 11:45:17;;;;;;;12.88;5.63;;;691.20;1510.40;;;;;;5085566;28;20051;-61
2023/10/08 11:47:45;;;;;;;9.90;5.05;;;691.20;1484.80;;;;;;5088919;28;20024;-62
2023/10/08 11:50:16;;;;;;;11.48;4.75;;;691.20;1484.80;;;;;;5086870;28;20036;-63
2023/10/08 11:52:42;;;;;;;7.50;4.47;;;691.20;1510.40;;;;;;5070439;28;20024;-62
2023/10/08 11:55:18;;;;;;;10.80;4.75;;;691.20;1484.80;;;;;;5089511;28;20039;-61
2023/10/08 11:57:50;;;;;;;12.73;5.20;;;691.40;1484.80;;;;;;5087222;28;20039;-61
2023/10/08 12:00:19;;;;;;;11.15;5.13;;;691.50;1459.20;;;;;;5075985;28;20058;-61
2023/10/08 12:02:54;;;;;;;11.98;4.65;;;691.60;1459.20;;;;;;5084051;28;20032;-61
2023/10/08 12:05:23;;;;;;;12.23;5.05;;;691.60;1484.80;;;;;;5078906;28;20450;-62
2023/10/08 12:07:50;;;;;;;10.32;4.55;;;;;;;;;;5066354;28;20139;-63
2023/10/08 12:10:23;;;;;;;10.70;4.90;;;691.70;1459.20;;;;;;5068424;28;20085;-61
2023/10/08 12:12:59;;;;;;;10.27;5.28;;;716.90;1459.20;;;;;;5062684;28;20066;-61
2023/10/08 12:15:34;;;;;;;13.43;5.70;;;717.10;1459.20;;;;;;5070653;28;20016;-61
2023/10/08 12:18:13;;;;;;;10.38;5.43;;;717.40;1433.60;;;;;;5080545;28;20059;-61
2023/10/08 12:20:39;;;;;;;9.50;5.20;;;717.70;1433.60;;;;;;5085101;28;20041;-62
2023/10/08 12:23:05;;;;;;;10.82;5.80;;;742.40;1408.00;;;;;;5069170;28;20043;-60
2023/10/08 12:25:34;;;;;;;17.98;5.47;;;742.70;1408.00;;;;;;5067869;28;20016;-62
2023/10/08 12:28:04;;;;;;;9.57;4.75;;;742.40;1408.00;;;;;;5078702;28;20035;-61
2023/10/08 12:30:41;;;;;;;12.55;5.78;;;717.60;1382.40;;;;;;5081894;28;20108;-62
2023/10/08 12:33:07;;;;;;;9.93;4.75;;;717.50;1408.00;;;;;;5067724;28;20027;-62
2023/10/08 12:35:33;;;;;;;10.25;5.75;;;717.20;1382.40;;;;;;5067502;28;20024;-62
2023/10/08 12:37:59;;;;;;;10.90;5.72;;;717.20;1382.40;;;;;;5068272;28;20028;-62
2023/10/08 12:40:31;;;;;;;13.45;6.13;;;716.90;1382.40;;;;;;5060008;28;20091;-62
2023/10/08 12:42:58;;;;;;;14.57;5.40;;;716.90;1408.00;;;;;;5065896;28;20238;-61
2023/10/08 12:45:27;;;;;;;16.35;5.20;;;716.90;1433.60;;;;;;5068946;28;20453;-62
2023/10/08 12:47:53;;;;;;;11.55;4.75;;;716.90;1433.60;;;;;;5080887;28;20482;-61
2023/10/08 12:53:11;;;;;;;12.95;6.25;;;716.80;1433.60;;;;;;5026981;28;20125;-62
2023/10/08 12:55:39;;;;;;;12.95;5.40;;;716.80;1459.20;;;;;;5026908;28;20033;-61
2023/10/08 12:58:09;;;;;;;12.63;6.05;;;692.00;1433.60;;;;;;5039667;28;20661;-62
2023/10/08 13:00:37;;;;;;;14.02;6.63;;;691.80;1459.20;;;;;;5044054;28;20075;-61
2023/10/08 13:03:07;;;;;;;8.02;5.50;;;691.70;1459.20;;;;;;5043566;28;20467;-62
2023/10/08 13:05:33;;;;;;;15.27;5.95;;;691.60;1459.20;;;;;;5043868;28;20037;-62
2023/10/08 13:08:09;;;;;;;14.02;6.53;;;691.60;1459.20;;;;;;5044026;28;20510;-62
2023/10/08 13:10:35;;;;;;;15.43;6.07;;;691.50;1484.80;;;;;;5044344;28;20536;-61
2023/10/08 13:13:01;;;;;;;11.02;6.07;;;691.40;1484.80;;;;;;5029898;28;20039;-62
2023/10/08 13:15:27;;;;;;;14.18;6.47;;;691.50;1484.80;;;;;;5037274;28;20112;-61
2023/10/08 13:17:53;;;;;;;12.68;6.03;;;691.50;1484.80;;;;;;5042888;28;20425;-61
2023/10/08 13:20:21;;;;;;;15.45;6.50;;;691.50;1510.40;;;;;;5046936;28;20210;-62
2023/10/08 13:22:46;;;;;;;11.95;6.55;;;691.30;1484.80;;;;;;5047953;28;20029;-61
2023/10/08 13:25:12;;;;;;;15.52;6.93;;;691.30;1484.80;;;;;;5047103;28;20024;-62
2023/10/08 13:27:39;;;;;;;14.40;6.75;;;691.30;1484.80;;;;;;5047867;28;20060;-62
2023/10/08 13:30:11;;;;;;;14.05;6.50;;;691.30;1510.40;;;;;;5067369;28;20486;-61
2023/10/08 13:32:37;;;;;;;14.40;7.20;;;691.20;1510.40;;;;;;5091032;28;20086;-61
2023/10/08 13:35:05;;;;;;;12.48;6.75;;;691.20;1510.40;;;;;;5090759;28;20024;-61
2023/10/08 13:37:33;;;;;;;10.95;6.32;;;691.20;1536.00;;;;;;5091023;28;20052;-61
2023/10/08 13:39:59;;;;;;;14.02;6.85;;;666.50;1536.00;;;;;;5090015;28;20027;-62
2023/10/08 13:42:26;;;;;;;14.95;6.68;;;666.50;1561.60;;;;;;5088324;28;20020;-62
2023/10/08 13:44:53;;;;;;;16.13;7.20;;;666.30;1561.60;;;;;;5071224;28;20072;-62
2023/10/08 13:47:22;;;;;;;12.00;6.45;;;666.20;1561.60;;;;;;5090766;28;20028;-62
2023/10/08 13:49:50;;;;;;;11.10;6.20;;;666.10;1561.60;;;;;;5090479;28;20647;-61
2023/10/08 13:52:17;;;;;;;12.48;7.40;;;666.00;1587.20;;;;;;5090663;28;20538;-60